createdAt,value
2018-08-12T00:01:22.991Z,20.69
2018-08-12T00:03:52.027Z,20.66
2018-08-12T00:06:21.014Z,20.62
2018-08-12T00:08:49.975Z,20.52
2018-08-12T00:11:18.931Z,20.49
2018-08-12T00:13:48.122Z,20.42
2018-08-12T00:16:17.230Z,20.31
2018-08-12T00:18:46.324Z,20.31
2018-08-12T00:21:15.340Z,20.36
2018-08-12T00:23:44.447Z,20.33
2018-08-12T00:26:13.539Z,20.26
2018-08-12T00:28:42.535Z,20.30
2018-08-12T00:31:11.527Z,20.19
2018-08-12T00:33:40.439Z,20.19
2018-08-12T00:36:09.427Z,20.18
2018-08-12T00:38:45.013Z,20.20
2018-08-12T00:41:14.214Z,20.21
2018-08-12T00:43:43.356Z,20.14
2018-08-12T00:46:12.473Z,20.24
2018-08-12T00:48:41.587Z,20.29
2018-08-12T00:51:10.747Z,20.30
2018-08-12T00:53:39.882Z,20.19
2018-08-12T00:56:08.966Z,20.12
2018-08-12T00:58:38.082Z,20.07
2018-08-12T01:01:07.323Z,20.05
2018-08-12T01:03:36.612Z,19.93
2018-08-12T01:06:05.862Z,19.96
2018-08-12T01:08:34.969Z,19.97
2018-08-12T01:11:04.079Z,20.00
2018-08-12T01:13:33.168Z,19.97
2018-08-12T01:16:02.275Z,19.84
2018-08-12T01:18:31.503Z,19.79
2018-08-12T01:21:00.624Z,19.76
2018-08-12T01:23:29.764Z,19.42
2018-08-12T01:26:06.419Z,19.52
2018-08-12T01:28:35.709Z,18.88
2018-08-12T01:31:04.799Z,19.29
2018-08-12T01:33:33.921Z,19.11
2018-08-12T01:36:03.030Z,18.40
2018-08-12T01:38:32.165Z,18.97
2018-08-12T01:41:01.161Z,19.11
2018-08-12T01:43:30.284Z,19.22
2018-08-12T01:45:59.253Z,19.31
2018-08-12T01:48:28.327Z,19.46
2018-08-12T01:50:57.362Z,19.34
2018-08-12T01:53:26.558Z,19.21
2018-08-12T01:55:55.592Z,18.87
2018-08-12T01:58:24.679Z,18.69
2018-08-12T02:00:54.235Z,19.14
2018-08-12T02:03:23.403Z,19.31
2018-08-12T02:05:52.646Z,19.30
2018-08-12T02:08:21.599Z,19.31
2018-08-12T02:10:50.653Z,19.36
2018-08-12T02:13:19.740Z,19.43
2018-08-12T02:15:48.924Z,19.55
2018-08-12T02:18:17.987Z,19.58
2018-08-12T02:20:46.983Z,19.64
2018-08-12T02:23:16.217Z,19.46
2018-08-12T02:25:45.325Z,19.49
2018-08-12T02:28:14.444Z,19.29
2018-08-12T02:30:43.600Z,19.35
2018-08-12T02:33:12.670Z,19.44
2018-08-12T02:35:41.725Z,19.41
2018-08-12T02:38:10.695Z,19.43
2018-08-12T02:40:39.812Z,19.41
2018-08-12T02:43:08.856Z,19.38
2018-08-12T02:45:37.924Z,19.37
2018-08-12T02:48:06.974Z,19.43
2018-08-12T02:50:36.188Z,19.42
2018-08-12T02:53:05.521Z,18.87
2018-08-12T02:55:34.633Z,19.18
2018-08-12T02:58:03.828Z,19.32
2018-08-12T03:00:33.016Z,19.35
2018-08-12T03:03:02.068Z,19.28
2018-08-12T03:05:31.129Z,19.24
2018-08-12T03:08:00.135Z,19.24
2018-08-12T03:10:29.252Z,19.30
2018-08-12T03:12:58.223Z,19.28
2018-08-12T03:15:27.316Z,19.24
2018-08-12T03:17:56.333Z,19.11
2018-08-12T03:20:25.500Z,19.07
2018-08-12T03:22:54.565Z,19.07
2018-08-12T03:25:23.751Z,18.95
2018-08-12T03:27:52.787Z,18.93
2018-08-12T03:30:22.068Z,19.01
2018-08-12T03:32:51.312Z,19.01
2018-08-12T03:35:20.476Z,19.00
2018-08-12T03:37:49.568Z,19.01
2018-08-12T03:40:18.737Z,18.98
2018-08-12T03:42:47.717Z,18.96
2018-08-12T03:45:16.800Z,18.89
2018-08-12T03:47:45.887Z,18.94
2018-08-12T03:50:14.937Z,18.97
2018-08-12T03:52:44.084Z,19.02
2018-08-12T03:55:13.199Z,18.98
2018-08-12T03:57:42.220Z,18.96
2018-08-12T04:00:15.335Z,18.38
2018-08-12T04:02:45.113Z,18.67
2018-08-12T04:05:14.338Z,18.90
2018-08-12T04:07:44.263Z,18.98
2018-08-12T04:10:13.433Z,19.11
2018-08-12T04:12:42.555Z,19.24
2018-08-12T04:15:12.559Z,19.25
2018-08-12T04:17:42.028Z,19.22
2018-08-12T04:20:12.040Z,19.16
2018-08-12T04:22:41.286Z,19.23
2018-08-12T04:25:10.478Z,19.32
2018-08-12T04:27:39.545Z,19.40
2018-08-12T04:30:09.959Z,19.45
2018-08-12T04:32:38.981Z,19.57
2018-08-12T04:35:08.527Z,19.68
2018-08-12T04:37:37.563Z,19.67
2018-08-12T04:40:07.694Z,19.62
2018-08-12T04:42:36.796Z,19.70
2018-08-12T04:45:06.263Z,19.75
2018-08-12T04:47:35.350Z,19.87
2018-08-12T04:50:04.715Z,19.95
2018-08-12T04:52:33.737Z,19.88
2018-08-12T04:55:02.800Z,20.07
2018-08-12T04:57:31.980Z,20.10
2018-08-12T05:00:01.090Z,20.17
2018-08-12T05:02:30.155Z,20.24
2018-08-12T05:04:59.403Z,20.22
2018-08-12T05:07:28.476Z,20.30
2018-08-12T05:09:57.555Z,20.35
2018-08-12T05:12:26.555Z,20.35
2018-08-12T05:14:55.586Z,20.44
2018-08-12T05:17:24.823Z,20.30
2018-08-12T05:20:00.079Z,20.45
2018-08-12T05:22:29.288Z,20.57
2018-08-12T05:24:58.245Z,20.27
2018-08-12T05:27:27.241Z,20.10
2018-08-12T05:29:56.263Z,20.12
2018-08-12T05:32:25.381Z,20.22
2018-08-12T05:34:54.614Z,20.44
2018-08-12T05:37:23.678Z,20.68
2018-08-12T05:39:53.154Z,20.87
2018-08-12T05:42:22.155Z,21.05
2018-08-12T05:44:51.299Z,20.67
2018-08-12T05:47:20.383Z,20.88
2018-08-12T05:49:49.405Z,21.14
2018-08-12T05:52:18.355Z,21.12
2018-08-12T05:54:47.448Z,21.28
2018-08-12T05:57:16.525Z,20.50
2018-08-12T05:59:45.619Z,20.34
2018-08-12T06:02:14.771Z,20.88
2018-08-12T06:04:43.904Z,20.97
2018-08-12T06:07:19.630Z,21.14
2018-08-12T06:09:48.929Z,21.58
2018-08-12T06:12:17.855Z,21.85
2018-08-12T06:14:47.081Z,20.68
2018-08-12T06:17:16.184Z,21.36
2018-08-12T06:19:45.188Z,21.76
2018-08-12T06:22:14.296Z,22.04
2018-08-12T06:24:43.332Z,22.31
2018-08-12T06:27:12.430Z,22.38
2018-08-12T06:29:41.525Z,22.58
2018-08-12T06:32:10.747Z,22.78
2018-08-12T06:34:39.812Z,22.90
2018-08-12T06:37:08.807Z,22.97
2018-08-12T06:39:37.916Z,23.04
2018-08-12T06:42:07.224Z,22.61
2018-08-12T06:44:36.271Z,22.92
2018-08-12T06:47:05.506Z,22.81
2018-08-12T06:49:35.699Z,23.00
2018-08-12T06:52:04.954Z,23.17
2018-08-12T06:54:35.225Z,22.56
2018-08-12T06:57:04.414Z,22.96
2018-08-12T06:59:33.599Z,23.11
2018-08-12T07:02:02.813Z,23.10
2018-08-12T07:04:31.803Z,23.26
2018-08-12T07:07:00.972Z,23.19
2018-08-12T07:09:30.078Z,23.40
2018-08-12T07:11:59.051Z,23.37
2018-08-12T07:14:28.332Z,23.62
2018-08-12T07:16:57.538Z,23.63
2018-08-12T07:19:26.591Z,23.73
2018-08-12T07:21:55.574Z,23.84
2018-08-12T07:24:24.679Z,24.14
2018-08-12T07:26:53.727Z,24.26
2018-08-12T07:29:22.887Z,23.97
2018-08-12T07:31:52.064Z,24.09
2018-08-12T07:34:21.245Z,24.06
2018-08-12T07:36:50.296Z,24.35
2018-08-12T07:39:19.437Z,24.23
2018-08-12T07:41:48.648Z,24.46
2018-08-12T07:44:17.796Z,24.30
2018-08-12T07:46:46.980Z,24.57
2018-08-12T07:49:16.215Z,23.97
2018-08-12T07:51:45.315Z,24.39
2018-08-12T07:54:14.489Z,24.58
2018-08-12T07:56:43.559Z,24.71
2018-08-12T07:59:12.672Z,24.57
2018-08-12T08:01:41.703Z,24.65
2018-08-12T08:04:10.775Z,24.32
2018-08-12T08:06:39.792Z,24.21
2018-08-12T08:09:11.001Z,23.91
2018-08-12T08:11:40.387Z,24.02
2018-08-12T08:14:09.551Z,24.39
2018-08-12T08:16:38.655Z,24.50
2018-08-12T08:19:07.772Z,24.64
2018-08-12T08:21:36.883Z,24.78
2018-08-12T08:24:06.961Z,24.73
2018-08-12T08:26:36.207Z,24.97
2018-08-12T08:29:05.707Z,24.68
2018-08-12T08:31:35.045Z,24.56
2018-08-12T08:34:03.951Z,24.21
2018-08-12T08:36:32.979Z,24.39
2018-08-12T08:39:02.127Z,24.52
2018-08-12T08:41:31.198Z,24.66
2018-08-12T08:44:00.372Z,24.54
2018-08-12T08:46:29.411Z,24.80
2018-08-12T08:48:58.443Z,24.78
2018-08-12T08:51:27.487Z,24.84
2018-08-12T08:53:56.471Z,24.87
2018-08-12T08:56:25.655Z,24.76
2018-08-12T08:58:54.828Z,24.70
2018-08-12T09:01:24.136Z,24.83
2018-08-12T09:03:53.367Z,24.92
2018-08-12T09:06:22.388Z,24.93
2018-08-12T09:08:51.642Z,24.99
2018-08-12T09:11:20.608Z,25.05
2018-08-12T09:13:49.686Z,25.19
2018-08-12T09:16:18.755Z,25.13
2018-08-12T09:18:47.891Z,25.08
2018-08-12T09:21:16.919Z,25.21
2018-08-12T09:23:45.910Z,25.41
2018-08-12T09:26:15.002Z,25.05
2018-08-12T09:28:44.117Z,25.33
2018-08-12T09:31:13.236Z,25.37
2018-08-12T09:33:42.286Z,25.42
2018-08-12T09:36:11.385Z,25.18
2018-08-12T09:38:40.445Z,25.25
2018-08-12T09:41:09.484Z,25.31
2018-08-12T09:43:38.628Z,25.45
2018-08-12T09:46:08.013Z,25.37
2018-08-12T09:48:37.067Z,25.37
2018-08-12T09:51:06.119Z,25.40
2018-08-12T09:53:35.193Z,25.39
2018-08-12T09:56:04.274Z,25.44
2018-08-12T09:58:33.414Z,25.48
2018-08-12T10:01:02.469Z,25.44
2018-08-12T10:03:31.649Z,25.57
2018-08-12T10:06:00.699Z,25.49
2018-08-12T10:08:29.822Z,25.45
2018-08-12T10:10:58.971Z,25.60
2018-08-12T10:13:27.983Z,25.68
2018-08-12T10:15:57.127Z,25.68
2018-08-12T10:18:26.435Z,25.72
2018-08-12T10:20:55.550Z,25.71
2018-08-12T10:23:24.647Z,25.66
2018-08-12T10:25:53.691Z,25.73
2018-08-12T10:28:22.763Z,25.61
2018-08-12T10:30:51.760Z,25.63
2018-08-12T10:33:20.793Z,25.77
2018-08-12T10:35:49.757Z,25.85
2018-08-12T10:38:19.011Z,25.93
2018-08-12T10:40:48.071Z,26.04
2018-08-12T10:43:17.089Z,26.23
2018-08-12T10:45:46.150Z,26.21
2018-08-12T10:48:15.287Z,26.19
2018-08-12T10:50:44.432Z,26.21
2018-08-12T10:53:13.609Z,25.92
2018-08-12T10:55:42.830Z,26.08
2018-08-12T10:58:12.116Z,26.21
2018-08-12T11:00:41.211Z,26.20
2018-08-12T11:03:10.360Z,26.31
2018-08-12T11:05:39.515Z,26.22
2018-08-12T11:08:08.771Z,26.05
2018-08-12T11:10:37.927Z,25.75
2018-08-12T11:13:07.121Z,25.95
2018-08-12T11:15:36.088Z,26.14
2018-08-12T11:18:05.137Z,26.21
2018-08-12T11:20:34.267Z,26.18
2018-08-12T11:23:03.345Z,26.20
2018-08-12T11:25:32.403Z,26.27
2018-08-12T11:28:01.536Z,26.28
2018-08-12T11:30:30.672Z,26.39
2018-08-12T11:32:59.712Z,26.31
2018-08-12T11:35:28.679Z,26.28
2018-08-12T11:37:57.844Z,26.46
2018-08-12T11:40:26.916Z,26.56
2018-08-12T11:42:56.181Z,26.61
2018-08-12T11:45:25.357Z,26.58
2018-08-12T11:47:54.652Z,26.51
2018-08-12T11:50:23.727Z,26.59
2018-08-12T11:52:52.805Z,26.58
2018-08-12T11:55:21.879Z,26.53
2018-08-12T11:57:51.015Z,26.55
2018-08-12T12:00:21.544Z,26.61
2018-08-12T12:02:52.644Z,26.55
2018-08-12T12:05:21.815Z,26.50
2018-08-12T12:07:50.898Z,26.32
2018-08-12T12:10:21.543Z,26.47
2018-08-12T12:12:51.383Z,26.49
2018-08-12T12:15:20.586Z,26.44
2018-08-12T12:17:49.889Z,26.41
2018-08-12T12:20:19.853Z,26.57
2018-08-12T12:22:49.241Z,26.50
2018-08-12T12:25:20.575Z,26.65
2018-08-12T12:27:49.635Z,26.69
2018-08-12T12:30:21.617Z,26.78
2018-08-12T12:32:51.924Z,26.87
2018-08-12T12:35:21.059Z,26.58
2018-08-12T12:37:50.392Z,26.84
2018-08-12T12:40:20.056Z,26.90
2018-08-12T12:42:49.284Z,26.99
2018-08-12T12:45:18.466Z,26.89
2018-08-12T12:47:47.419Z,26.73
2018-08-12T12:50:21.422Z,26.82
2018-08-12T12:52:51.503Z,26.91
2018-08-12T12:55:21.763Z,26.92
2018-08-12T12:57:50.864Z,27.01
2018-08-12T13:00:21.140Z,27.04
2018-08-12T13:02:50.463Z,27.08
2018-08-12T13:05:20.619Z,27.16
2018-08-12T13:07:50.337Z,27.10
2018-08-12T13:10:19.973Z,26.83
2018-08-12T13:12:49.131Z,27.05
2018-08-12T13:15:18.496Z,27.07
2018-08-12T13:17:47.648Z,27.07
2018-08-12T13:20:18.412Z,27.11
2018-08-12T13:22:48.507Z,26.96
2018-08-12T13:25:19.135Z,27.02
2018-08-12T13:27:48.383Z,27.24
2018-08-12T13:30:21.299Z,27.24
2018-08-12T13:32:50.852Z,27.20
2018-08-12T13:35:20.017Z,27.23
2018-08-12T13:37:49.172Z,27.14
2018-08-12T13:40:18.588Z,27.00
2018-08-12T13:42:47.953Z,27.04
2018-08-12T13:45:17.118Z,27.13
2018-08-12T13:47:47.083Z,27.27
2018-08-12T13:50:19.830Z,27.36
2018-08-12T13:52:49.529Z,27.38
2018-08-12T13:55:19.275Z,27.46
2018-08-12T13:57:49.150Z,27.43
2018-08-12T14:00:20.005Z,27.37
2018-08-12T14:02:49.069Z,27.34
2018-08-12T14:05:19.113Z,27.36
2018-08-12T14:07:48.664Z,27.35
2018-08-12T14:10:17.682Z,27.58
2018-08-12T14:12:46.778Z,27.46
2018-08-12T14:15:18.919Z,27.47
2018-08-12T14:17:48.855Z,27.36
2018-08-12T14:20:20.104Z,26.98
2018-08-12T14:22:49.286Z,27.09
2018-08-12T14:25:18.250Z,27.06
2018-08-12T14:27:47.575Z,26.94
2018-08-12T14:30:18.288Z,26.95
2018-08-12T14:32:48.285Z,26.82
2018-08-12T14:35:17.556Z,26.98
2018-08-12T14:37:46.683Z,26.82
2018-08-12T14:40:18.920Z,27.00
2018-08-12T14:42:48.162Z,27.17
2018-08-12T14:45:17.529Z,27.03
2018-08-12T14:47:47.008Z,26.98
2018-08-12T14:50:19.146Z,26.78
2018-08-12T14:52:48.352Z,26.84
2018-08-12T14:55:18.960Z,26.84
2018-08-12T14:57:48.063Z,26.87
2018-08-12T15:00:20.148Z,26.97
2018-08-12T15:02:51.293Z,27.10
2018-08-12T15:05:20.917Z,27.27
2018-08-12T15:07:50.310Z,27.22
2018-08-12T15:10:19.793Z,27.25
2018-08-12T15:12:49.126Z,27.31
2018-08-12T15:15:18.313Z,27.36
2018-08-12T15:17:47.733Z,27.34
2018-08-12T15:20:17.620Z,27.14
2018-08-12T15:22:47.021Z,27.00
2018-08-12T15:25:19.220Z,27.14
2018-08-12T15:27:48.457Z,27.18
2018-08-12T15:30:17.643Z,27.12
2018-08-12T15:32:46.715Z,27.08
2018-08-12T15:37:53.443Z,27.45
2018-08-12T15:40:22.579Z,27.20
2018-08-12T15:42:51.778Z,27.33
2018-08-12T15:45:21.089Z,27.34
2018-08-12T15:47:50.299Z,27.07
2018-08-12T15:50:19.414Z,26.99
2018-08-12T15:52:48.502Z,27.10
2018-08-12T15:55:17.672Z,27.11
2018-08-12T15:57:46.836Z,27.00
2018-08-12T16:00:18.123Z,27.01
2018-08-12T16:02:47.445Z,27.12
2018-08-12T16:05:16.534Z,27.31
2018-08-12T16:07:46.605Z,27.00
2018-08-12T16:10:25.292Z,26.99
2018-08-12T16:12:55.090Z,27.09
2018-08-12T16:15:31.302Z,27.08
2018-08-12T16:18:00.957Z,27.19
2018-08-12T16:20:29.906Z,26.95
2018-08-12T16:22:59.027Z,27.08
2018-08-12T16:25:28.056Z,27.11
2018-08-12T16:27:57.075Z,27.18
2018-08-12T16:30:26.383Z,27.14
2018-08-12T16:32:55.346Z,26.76
2018-08-12T16:35:26.459Z,26.90
2018-08-12T16:37:56.238Z,26.87
2018-08-12T16:40:25.268Z,26.86
2018-08-12T16:42:54.350Z,26.80
2018-08-12T16:45:23.536Z,26.83
2018-08-12T16:47:52.651Z,26.67
2018-08-12T16:50:21.689Z,26.62
2018-08-12T16:52:50.739Z,26.65
2018-08-12T16:55:20.127Z,26.71
2018-08-12T17:03:57.082Z,26.45
2018-08-12T17:06:26.395Z,26.48
2018-08-12T17:08:55.574Z,26.33
2018-08-12T17:11:24.560Z,26.23
2018-08-12T17:13:53.663Z,26.26
2018-08-12T17:16:22.869Z,26.15
2018-08-12T17:18:52.031Z,26.13
2018-08-12T17:21:21.214Z,26.10
2018-08-12T17:23:50.371Z,25.91
2018-08-12T17:26:20.216Z,26.02
2018-08-12T17:28:49.199Z,26.09
2018-08-12T17:31:19.547Z,26.15
2018-08-12T17:33:48.588Z,26.55
2018-08-12T17:36:17.777Z,26.35
2018-08-12T17:38:46.948Z,26.03
2018-08-12T17:41:16.064Z,26.01
2018-08-12T17:43:45.081Z,26.08
2018-08-12T17:46:14.125Z,25.95
2018-08-12T17:48:43.213Z,25.79
2018-08-12T17:51:12.401Z,25.67
2018-08-12T17:53:41.559Z,25.64
2018-08-12T17:56:11.188Z,25.63
2018-08-12T17:58:40.512Z,25.62
2018-08-12T18:01:09.517Z,25.61
2018-08-12T18:03:38.575Z,25.51
2018-08-12T18:06:07.699Z,25.68
2018-08-12T18:08:36.764Z,25.69
2018-08-12T18:11:05.855Z,25.87
2018-08-12T18:13:35.008Z,26.00
2018-08-12T18:16:04.045Z,26.14
2018-08-12T18:18:33.041Z,26.20
2018-08-12T18:21:02.060Z,26.24
2018-08-12T18:23:31.176Z,26.30
2018-08-12T18:26:00.303Z,26.34
2018-08-12T18:28:29.369Z,26.30
2018-08-12T18:30:58.392Z,26.30
2018-08-12T18:33:27.382Z,26.30
2018-08-12T18:35:56.375Z,26.36
2018-08-12T18:38:25.392Z,26.43
2018-08-12T18:40:54.486Z,26.39
2018-08-12T18:43:23.585Z,26.28
2018-08-12T18:45:52.663Z,26.35
2018-08-12T18:48:21.812Z,26.35
2018-08-12T18:50:50.776Z,26.21
2018-08-12T18:53:19.829Z,26.17
2018-08-12T18:55:48.859Z,26.17
2018-08-12T18:58:17.843Z,26.32
2018-08-12T19:00:46.951Z,26.30
2018-08-12T19:03:16.072Z,26.34
2018-08-12T19:05:45.135Z,26.44
2018-08-12T19:08:14.044Z,26.47
2018-08-12T19:10:42.994Z,26.51
2018-08-12T19:13:11.951Z,26.45
2018-08-12T19:15:40.941Z,26.47
2018-08-12T19:18:10.020Z,26.44
2018-08-12T19:20:39.014Z,26.43
2018-08-12T19:23:08.098Z,26.41
2018-08-12T19:25:37.151Z,26.43
2018-08-12T19:28:06.336Z,26.42
2018-08-12T19:30:35.303Z,26.40
2018-08-12T19:33:04.402Z,26.35
2018-08-12T19:35:33.431Z,26.29
2018-08-12T19:38:02.614Z,26.22
2018-08-12T19:40:31.637Z,26.20
2018-08-12T19:43:00.747Z,26.15
2018-08-12T19:45:30.068Z,26.09
2018-08-12T19:47:59.056Z,26.04
2018-08-12T19:50:28.156Z,26.00
2018-08-12T19:52:57.310Z,25.97
2018-08-12T19:55:26.319Z,25.92
2018-08-12T19:57:55.360Z,25.82
2018-08-12T20:00:24.322Z,25.82
2018-08-12T20:02:53.383Z,25.81
2018-08-12T20:05:22.361Z,25.80
2018-08-12T20:07:51.391Z,25.69
2018-08-12T20:10:20.358Z,25.61
2018-08-12T20:12:49.546Z,25.56
2018-08-12T20:15:18.650Z,25.47
2018-08-12T20:17:47.554Z,25.44
2018-08-12T20:20:16.600Z,25.43
2018-08-12T20:22:48.429Z,25.41
2018-08-12T20:25:17.467Z,25.40
2018-08-12T20:27:46.500Z,25.39
2018-08-12T20:30:15.495Z,25.29
2018-08-12T20:32:44.474Z,25.32
2018-08-12T20:35:13.457Z,25.25
2018-08-12T20:37:42.442Z,25.22
2018-08-12T20:40:11.545Z,25.21
2018-08-12T20:42:40.586Z,25.20
2018-08-12T20:45:09.602Z,25.19
2018-08-12T20:47:38.642Z,25.12
2018-08-12T20:50:08.252Z,25.13
2018-08-12T20:52:37.752Z,25.06
2018-08-12T20:55:06.856Z,25.04
2018-08-12T20:57:36.235Z,25.01
2018-08-12T21:00:06.792Z,24.97
2018-08-12T21:02:36.009Z,25.02
2018-08-12T21:05:05.509Z,24.99
2018-08-12T21:07:34.620Z,24.91
2018-08-12T21:10:04.440Z,24.82
2018-08-12T21:12:33.552Z,24.82
2018-08-12T21:15:02.590Z,24.76
2018-08-12T21:17:31.526Z,24.71
2018-08-12T21:20:00.457Z,24.68
2018-08-12T21:22:29.569Z,24.63
2018-08-12T21:24:58.712Z,24.60
2018-08-12T21:27:27.682Z,24.60
2018-08-12T21:29:56.638Z,24.57
2018-08-12T21:32:25.635Z,24.55
2018-08-12T21:34:54.603Z,24.49
2018-08-12T21:37:23.594Z,24.49
2018-08-12T21:39:52.573Z,24.40
2018-08-12T21:42:21.734Z,24.37
2018-08-12T21:44:50.935Z,24.34
2018-08-12T21:47:20.062Z,24.33
2018-08-12T21:49:49.060Z,24.27
2018-08-12T21:52:18.000Z,24.30
2018-08-12T21:54:47.056Z,24.24
2018-08-12T21:57:16.057Z,24.15
2018-08-12T21:59:45.095Z,24.04
2018-08-12T22:02:14.099Z,24.00
2018-08-12T22:04:43.157Z,23.97
2018-08-12T22:07:12.258Z,23.88
2018-08-12T22:09:41.172Z,23.77
2018-08-12T22:12:10.223Z,23.68
2018-08-12T22:14:39.216Z,23.63
2018-08-12T22:17:08.192Z,23.59
2018-08-12T22:19:37.194Z,23.52
2018-08-12T22:22:06.499Z,23.38
2018-08-12T22:24:35.519Z,23.28
2018-08-12T22:27:04.623Z,23.10
2018-08-12T22:29:33.609Z,23.12
2018-08-12T22:32:02.637Z,23.29
2018-08-12T22:34:31.635Z,23.26
2018-08-12T22:37:00.656Z,23.26
2018-08-12T22:39:29.723Z,23.10
2018-08-12T22:41:58.866Z,23.07
2018-08-12T22:44:27.899Z,23.07
2018-08-12T22:46:57.044Z,23.14
2018-08-12T22:49:26.041Z,23.25
2018-08-12T22:51:55.200Z,23.26
2018-08-12T22:54:24.236Z,23.24
2018-08-12T22:56:53.525Z,23.22
2018-08-12T22:59:22.616Z,23.17
2018-08-12T23:01:51.734Z,23.07
2018-08-12T23:04:20.833Z,23.05
2018-08-12T23:06:49.961Z,23.10
2018-08-12T23:09:18.975Z,23.14
2018-08-12T23:11:48.043Z,23.14
2018-08-12T23:14:17.031Z,23.15
2018-08-12T23:16:59.524Z,23.16
2018-08-12T23:19:28.953Z,23.18
2018-08-12T23:21:58.254Z,23.20
2018-08-12T23:24:27.283Z,23.23
2018-08-12T23:26:56.355Z,23.25
2018-08-12T23:29:25.408Z,23.33
2018-08-12T23:31:54.395Z,23.33
2018-08-12T23:34:23.396Z,23.32
2018-08-12T23:36:52.553Z,23.32
2018-08-12T23:39:21.701Z,23.29
2018-08-12T23:41:50.705Z,23.27
2018-08-12T23:44:19.715Z,23.27
2018-08-12T23:46:48.810Z,23.24
2018-08-12T23:49:17.905Z,23.21
2018-08-12T23:51:46.896Z,23.16
2018-08-12T23:54:16.010Z,23.17
2018-08-12T23:56:45.087Z,23.06
2018-08-12T23:59:14.133Z,22.99
